« Back
NWS Peachtree City, Ga » Text Product » AHN Terminal Aerodrome Forecast


Printer-friendly Version
Current Version              Previous Versions:   1  2  3  4  5  6  7  8  9  

Terminal Aerodrome Forecast

364
FTAK31 PAJN 251100
TAFAHN
TAF
PAHN 251130Z 2512/2612 31010KT P6SM VCSH BKN050
     FM251800 31010KT P6SM SCT050 BKN100
     FM252100 31012KT P6SM BKN120
     FM260600 31010KT P6SM SCT060 SCT120
      AMD LTD TO CLD VIS AND WIND=



USA.gov is the U.S. government's official web portal to all federal, state and local government web resources and services.